Hampton Falls, New Hampshire
Current Conditions -  °F | °C
As of 10:23 AM on Friday 28 Nov 2014 (Local Time) from KPSM Reporting Station
Overcast Overcast  
Wind Chill: 21°   Ceiling: 6000
Heat Index: 27°   Visibility: 10mi
Dew Point: 21°   Wind: 5mph
Humidity: 80%   Direction: 320°NW
Pressure: 30.05"   Gusts: NA
Location:  42.92°N, 70.86°W
Report Text: KPSM 281523Z 32004KT 10SM FEW018 SCT028 BKN060 OVC080 M03/M06 A3005 RMK AO2A
Loading
Personal Weather Stations






























Interactive Weather Map New forecast layout! Learn more

10-Day Weather Forecast

Advertisements
Track Severe Weather on mobile